createdAt,value
2017-08-04T00:00:50.201Z,61.10
2017-08-04T00:03:17.707Z,61.10
2017-08-04T00:05:45.190Z,61.50
2017-08-04T00:08:12.659Z,61.70
2017-08-04T00:10:40.890Z,61.70
2017-08-04T00:13:08.366Z,61.70
2017-08-04T00:15:36.446Z,61.80
2017-08-04T00:18:04.060Z,62.00
2017-08-04T00:20:31.520Z,62.10
2017-08-04T00:22:58.995Z,62.30
2017-08-04T00:25:26.466Z,62.50
2017-08-04T00:27:53.983Z,62.50
2017-08-04T00:30:21.579Z,62.20
2017-08-04T00:32:49.056Z,62.40
2017-08-04T00:35:16.694Z,62.10
2017-08-04T00:37:44.721Z,62.30
2017-08-04T00:40:12.210Z,62.10
2017-08-04T00:42:39.877Z,62.60
2017-08-04T00:45:07.341Z,62.40
2017-08-04T00:47:34.820Z,62.70
2017-08-04T00:50:03.054Z,62.30
2017-08-04T00:52:30.666Z,62.30
2017-08-04T00:54:59.034Z,62.10
2017-08-04T00:57:27.270Z,62.30
2017-08-04T00:59:54.739Z,62.30
2017-08-04T01:02:22.220Z,62.20
2017-08-04T01:04:49.684Z,61.70
2017-08-04T01:07:17.937Z,61.30
2017-08-04T01:09:45.618Z,61.20
2017-08-04T01:12:13.066Z,61.10
2017-08-04T01:14:40.604Z,61.00
2017-08-04T01:17:08.063Z,60.90
2017-08-04T01:19:35.629Z,61.10
2017-08-04T01:22:03.105Z,61.40
2017-08-04T01:24:31.362Z,62.00
2017-08-04T01:26:58.833Z,61.80
2017-08-04T01:29:27.069Z,62.50
2017-08-04T01:31:55.358Z,62.20
2017-08-04T01:34:22.823Z,62.20
2017-08-04T01:36:50.449Z,62.30
2017-08-04T01:39:17.942Z,62.10
2017-08-04T01:41:45.410Z,62.30
2017-08-04T01:44:13.634Z,62.80
2017-08-04T01:46:41.124Z,62.80
2017-08-04T01:49:08.757Z,62.50
2017-08-04T01:51:36.309Z,63.40
2017-08-04T01:54:03.782Z,63.50
2017-08-04T01:56:31.249Z,63.70
2017-08-04T01:58:58.784Z,63.70
2017-08-04T02:01:26.251Z,63.90
2017-08-04T02:03:53.752Z,64.20
2017-08-04T02:06:21.214Z,64.40
2017-08-04T02:08:49.458Z,63.30
2017-08-04T02:11:16.933Z,63.30
2017-08-04T02:13:45.167Z,62.70
2017-08-04T02:16:12.638Z,62.70
2017-08-04T02:18:40.126Z,63.70
2017-08-04T02:21:08.385Z,63.10
2017-08-04T02:23:35.855Z,63.00
2017-08-04T02:26:04.102Z,63.70
2017-08-04T02:28:31.577Z,63.50
2017-08-04T02:30:59.047Z,64.10
2017-08-04T02:33:27.325Z,64.30
2017-08-04T02:35:55.621Z,65.20
2017-08-04T02:38:23.092Z,64.70
2017-08-04T02:40:50.747Z,65.00
2017-08-04T02:43:18.226Z,65.00
2017-08-04T02:45:45.731Z,64.90
2017-08-04T02:48:14.078Z,66.30
2017-08-04T02:50:41.556Z,65.60
2017-08-04T02:53:09.028Z,65.60
2017-08-04T02:55:37.283Z,65.00
2017-08-04T02:58:04.753Z,65.00
2017-08-04T03:00:33.004Z,65.40
2017-08-04T03:03:00.467Z,65.40
2017-08-04T03:05:27.965Z,65.10
2017-08-04T03:07:55.439Z,65.40
2017-08-04T03:10:22.960Z,65.40
2017-08-04T03:12:51.206Z,65.60
2017-08-04T03:15:18.662Z,65.50
2017-08-04T03:17:46.153Z,65.30
2017-08-04T03:20:14.386Z,65.20
2017-08-04T03:22:41.924Z,65.20
2017-08-04T03:25:09.378Z,65.40
2017-08-04T03:27:36.853Z,65.30
2017-08-04T03:30:04.349Z,65.30
2017-08-04T03:32:32.690Z,66.00
2017-08-04T03:35:00.149Z,65.30
2017-08-04T03:37:27.680Z,65.30
2017-08-04T03:39:55.137Z,65.10
2017-08-04T03:42:22.700Z,65.20
2017-08-04T03:44:50.177Z,65.20
2017-08-04T03:47:17.661Z,65.20
2017-08-04T03:49:45.139Z,65.70
2017-08-04T03:52:13.386Z,65.90
2017-08-04T03:54:40.868Z,65.90
2017-08-04T03:57:09.174Z,65.50
2017-08-04T03:59:36.638Z,65.50
2017-08-04T04:02:04.098Z,65.70
2017-08-04T04:04:31.841Z,65.70
2017-08-04T04:06:59.319Z,65.80
2017-08-04T04:09:26.802Z,66.70
2017-08-04T04:11:54.286Z,66.20
2017-08-04T04:14:22.526Z,66.00
2017-08-04T04:16:49.997Z,66.00
2017-08-04T04:19:17.650Z,66.20
2017-08-04T04:21:45.227Z,66.20
2017-08-04T04:24:12.693Z,66.20
2017-08-04T04:26:40.917Z,66.30
2017-08-04T04:29:08.394Z,66.20
2017-08-04T04:31:36.075Z,67.10
2017-08-04T04:34:03.551Z,66.40
2017-08-04T04:36:31.786Z,67.10
2017-08-04T04:38:59.277Z,67.00
2017-08-04T04:41:27.577Z,66.80
2017-08-04T04:43:55.215Z,66.70
2017-08-04T04:46:23.574Z,66.70
2017-08-04T04:48:51.044Z,66.60
2017-08-04T04:51:19.317Z,66.70
2017-08-04T04:53:47.635Z,66.90
2017-08-04T04:56:15.198Z,66.80
2017-08-04T04:58:42.659Z,66.50
2017-08-04T05:01:10.592Z,66.60
2017-08-04T05:03:38.077Z,66.70
2017-08-04T05:06:05.588Z,67.10
2017-08-04T05:08:33.878Z,67.70
2017-08-04T05:11:02.733Z,66.70
2017-08-04T05:13:30.341Z,66.70
2017-08-04T05:15:57.813Z,66.80
2017-08-04T05:18:25.281Z,67.00
2017-08-04T05:20:52.846Z,67.10
2017-08-04T05:23:20.392Z,66.90
2017-08-04T05:25:47.853Z,67.20
2017-08-04T05:28:15.334Z,66.80
2017-08-04T05:30:43.653Z,66.30
2017-08-04T05:33:11.954Z,66.90
2017-08-04T05:35:40.031Z,66.90
2017-08-04T05:38:07.537Z,66.50
2017-08-04T05:40:35.086Z,66.40
2017-08-04T05:43:02.561Z,66.30
2017-08-04T05:45:30.780Z,66.80
2017-08-04T05:47:58.251Z,66.70
2017-08-04T05:50:26.610Z,66.40
2017-08-04T05:52:54.080Z,66.80
2017-08-04T05:55:21.566Z,67.10
2017-08-04T05:57:49.922Z,67.30
2017-08-04T06:00:17.390Z,66.00
2017-08-04T06:02:44.873Z,66.70
2017-08-04T06:05:13.093Z,66.50
2017-08-04T06:07:40.662Z,66.50
2017-08-04T06:10:08.157Z,67.00
2017-08-04T06:12:35.620Z,67.10
2017-08-04T06:15:03.881Z,66.70
2017-08-04T06:17:31.368Z,66.70
2017-08-04T06:19:59.605Z,67.00
2017-08-04T06:22:27.074Z,67.60
2017-08-04T06:24:55.309Z,66.60
2017-08-04T06:27:22.781Z,66.60
2017-08-04T06:29:51.151Z,66.20
2017-08-04T06:32:18.634Z,66.60
2017-08-04T06:34:46.089Z,66.50
2017-08-04T06:37:13.568Z,66.40
2017-08-04T06:39:41.985Z,66.90
2017-08-04T06:42:09.456Z,66.90
2017-08-04T06:44:36.934Z,66.50
2017-08-04T06:47:04.400Z,65.70
2017-08-04T06:49:43.851Z,66.30
2017-08-04T06:52:24.096Z,66.30
2017-08-04T06:55:03.552Z,65.60
2017-08-04T06:57:31.893Z,66.10
2017-08-04T06:59:59.376Z,66.10
2017-08-04T07:02:27.611Z,65.20
2017-08-04T07:04:55.154Z,65.20
2017-08-04T07:07:22.651Z,66.40
2017-08-04T07:09:50.142Z,65.20
2017-08-04T07:12:17.607Z,65.50
2017-08-04T07:14:45.081Z,66.70
2017-08-04T07:17:12.568Z,66.80
2017-08-04T07:19:40.045Z,66.40
2017-08-04T07:22:08.286Z,66.30
2017-08-04T07:24:35.771Z,66.30
2017-08-04T07:27:03.250Z,65.80
2017-08-04T07:29:31.497Z,66.80
2017-08-04T07:31:58.977Z,66.80
2017-08-04T07:34:27.208Z,66.00
2017-08-04T07:36:54.691Z,65.90
2017-08-04T07:39:22.929Z,64.80
2017-08-04T07:41:50.378Z,65.20
2017-08-04T07:44:18.021Z,66.00
2017-08-04T07:46:45.602Z,65.60
2017-08-04T07:49:13.086Z,65.00
2017-08-04T07:51:40.621Z,66.00
2017-08-04T07:54:08.089Z,64.70
2017-08-04T07:56:35.665Z,63.20
2017-08-04T07:59:03.121Z,64.80
2017-08-04T08:01:30.589Z,64.80
2017-08-04T08:03:58.077Z,64.50
2017-08-04T08:06:25.558Z,63.70
2017-08-04T08:08:53.037Z,63.70
2017-08-04T08:11:20.528Z,62.40
2017-08-04T08:13:48.766Z,63.50
2017-08-04T08:16:16.241Z,63.50
2017-08-04T08:18:43.718Z,62.70
2017-08-04T08:21:11.956Z,63.00
2017-08-04T08:23:39.435Z,63.00
2017-08-04T08:26:06.906Z,63.60
2017-08-04T08:28:35.126Z,62.50
2017-08-04T08:31:02.603Z,62.50
2017-08-04T08:33:30.458Z,62.60
2017-08-04T08:35:57.995Z,61.70
2017-08-04T08:38:25.560Z,62.70
2017-08-04T08:40:53.017Z,62.00
2017-08-04T08:43:20.641Z,61.70
2017-08-04T08:45:48.901Z,61.00
2017-08-04T08:48:17.130Z,59.20
2017-08-04T08:50:44.620Z,59.40
2017-08-04T08:53:12.076Z,58.80
2017-08-04T08:55:39.563Z,59.60
2017-08-04T08:58:07.833Z,59.90
2017-08-04T09:00:36.190Z,58.90
2017-08-04T09:03:03.667Z,58.80
2017-08-04T09:05:32.015Z,58.40
2017-08-04T09:07:59.489Z,58.30
2017-08-04T09:10:26.946Z,57.90
2017-08-04T09:12:55.221Z,58.40
2017-08-04T09:15:22.724Z,57.70
2017-08-04T09:17:50.364Z,57.70
2017-08-04T09:20:17.838Z,58.80
2017-08-04T09:22:45.347Z,58.20
2017-08-04T09:25:12.806Z,58.60
2017-08-04T09:27:41.190Z,58.20
2017-08-04T09:30:08.958Z,57.90
2017-08-04T09:32:36.425Z,57.90
2017-08-04T09:35:04.678Z,57.90
2017-08-04T09:37:32.341Z,57.90
2017-08-04T09:39:59.817Z,58.20
2017-08-04T09:42:28.082Z,57.40
2017-08-04T09:44:56.338Z,57.50
2017-08-04T09:47:23.797Z,57.50
2017-08-04T09:49:51.307Z,57.60
2017-08-04T09:52:18.770Z,58.50
2017-08-04T09:54:46.245Z,57.70
2017-08-04T09:57:13.700Z,57.60
2017-08-04T09:59:41.174Z,57.50
2017-08-04T10:02:08.807Z,57.60
2017-08-04T10:04:36.264Z,57.80
2017-08-04T10:07:03.742Z,58.80
2017-08-04T10:09:31.202Z,58.30
2017-08-04T10:11:58.858Z,59.00
2017-08-04T10:14:26.917Z,58.70
2017-08-04T10:16:54.491Z,58.40
2017-08-04T10:19:21.949Z,57.70
2017-08-04T10:21:49.839Z,58.20
2017-08-04T10:24:17.321Z,57.80
2017-08-04T10:26:44.799Z,57.90
2017-08-04T10:29:12.278Z,56.90
2017-08-04T10:31:39.766Z,56.60
2017-08-04T10:34:07.351Z,56.90
2017-08-04T10:36:34.831Z,57.10
2017-08-04T10:39:02.300Z,57.30
2017-08-04T10:41:29.792Z,57.60
2017-08-04T10:43:58.034Z,57.30
2017-08-04T10:46:25.504Z,57.40
2017-08-04T10:48:52.975Z,58.70
2017-08-04T10:51:20.429Z,57.90
2017-08-04T10:53:47.909Z,57.60
2017-08-04T10:56:16.132Z,57.90
2017-08-04T10:58:43.589Z,57.80
2017-08-04T11:01:11.058Z,57.70
2017-08-04T11:03:38.600Z,58.30
2017-08-04T11:06:06.082Z,60.20
2017-08-04T11:08:33.548Z,58.90
2017-08-04T11:11:01.012Z,60.30
2017-08-04T11:13:29.241Z,59.30
2017-08-04T11:15:56.700Z,59.30
2017-08-04T11:18:24.179Z,59.30
2017-08-04T11:20:51.648Z,58.70
2017-08-04T11:23:19.134Z,57.10
2017-08-04T11:25:46.625Z,58.00
2017-08-04T11:28:14.107Z,57.80
2017-08-04T11:30:41.612Z,58.00
2017-08-04T11:33:09.064Z,56.50
2017-08-04T11:35:36.546Z,57.20
2017-08-04T11:38:04.006Z,56.80
2017-08-04T11:40:31.485Z,55.20
2017-08-04T11:42:58.944Z,55.20
2017-08-04T11:45:26.426Z,54.50
2017-08-04T11:47:54.669Z,56.40
2017-08-04T11:50:22.754Z,56.30
2017-08-04T11:52:50.222Z,56.00
2017-08-04T11:55:18.300Z,55.90
2017-08-04T11:57:46.524Z,56.50
2017-08-04T12:00:14.021Z,56.50
2017-08-04T12:02:41.477Z,57.40
2017-08-04T12:05:08.949Z,57.10
2017-08-04T12:07:37.182Z,55.50
2017-08-04T12:10:04.661Z,55.50
2017-08-04T12:12:32.184Z,55.50
2017-08-04T12:14:59.639Z,55.10
2017-08-04T12:17:27.125Z,54.40
2017-08-04T12:19:54.592Z,55.80
2017-08-04T12:22:22.067Z,55.60
2017-08-04T12:24:50.309Z,55.80
2017-08-04T12:27:17.780Z,55.30
2017-08-04T12:29:45.330Z,55.40
2017-08-04T12:32:12.796Z,56.00
2017-08-04T12:34:40.266Z,55.00
2017-08-04T12:37:07.757Z,55.40
2017-08-04T12:39:35.212Z,55.50
2017-08-04T12:42:02.800Z,55.80
2017-08-04T12:44:30.293Z,55.30
2017-08-04T12:46:58.547Z,55.40
2017-08-04T12:49:26.013Z,55.40
2017-08-04T12:51:53.481Z,56.20
2017-08-04T12:54:21.717Z,55.70
2017-08-04T12:56:49.184Z,55.70
2017-08-04T12:59:16.666Z,55.80
2017-08-04T13:01:44.187Z,56.80
2017-08-04T13:04:11.644Z,57.30
2017-08-04T13:06:39.109Z,58.00
2017-08-04T13:09:06.746Z,57.30
2017-08-04T13:11:34.213Z,56.90
2017-08-04T13:14:01.690Z,58.20
2017-08-04T13:16:29.163Z,58.60
2017-08-04T13:18:56.629Z,57.80
2017-08-04T13:21:24.877Z,56.00
2017-08-04T13:23:52.343Z,56.00
2017-08-04T13:26:19.833Z,54.80
2017-08-04T13:28:47.331Z,54.30
2017-08-04T13:31:14.786Z,53.10
2017-08-04T13:33:42.278Z,54.10
2017-08-04T13:36:09.737Z,54.30
2017-08-04T13:38:42.968Z,54.50
2017-08-04T13:41:10.452Z,54.20
2017-08-04T13:43:37.900Z,53.30
2017-08-04T13:46:05.368Z,53.90
2017-08-04T13:48:32.826Z,54.80
2017-08-04T13:51:00.310Z,54.70
2017-08-04T13:53:27.771Z,55.20
2017-08-04T13:55:55.225Z,55.30
2017-08-04T13:58:22.700Z,56.30
2017-08-04T14:00:51.010Z,54.20
2017-08-04T14:03:18.708Z,54.20
2017-08-04T14:05:46.153Z,54.50
2017-08-04T14:08:13.621Z,54.60
2017-08-04T14:10:41.189Z,53.10
2017-08-04T14:13:08.669Z,54.00
2017-08-04T14:15:36.908Z,53.80
2017-08-04T14:18:04.377Z,53.80
2017-08-04T14:20:31.853Z,53.40
2017-08-04T14:23:00.081Z,53.70
2017-08-04T14:25:27.622Z,53.70
2017-08-04T14:27:55.082Z,55.40
2017-08-04T14:30:22.546Z,54.10
2017-08-04T14:32:50.022Z,54.10
2017-08-04T14:35:17.477Z,55.20
2017-08-04T14:37:44.969Z,54.40
2017-08-04T14:40:13.314Z,54.30
2017-08-04T14:42:40.844Z,54.30
2017-08-04T14:45:08.328Z,54.10
2017-08-04T14:47:35.791Z,54.70
2017-08-04T14:50:03.322Z,53.90
2017-08-04T14:52:30.986Z,53.40
2017-08-04T14:54:58.446Z,52.60
2017-08-04T14:57:25.916Z,52.90
2017-08-04T14:59:53.370Z,52.80
2017-08-04T15:02:21.049Z,52.40
2017-08-04T15:04:48.509Z,52.70
2017-08-04T15:07:15.994Z,53.80
2017-08-04T15:09:43.456Z,52.50
2017-08-04T15:12:10.923Z,53.40
2017-08-04T15:14:38.419Z,53.30
2017-08-04T15:17:05.872Z,52.70
2017-08-04T15:19:33.344Z,52.10
2017-08-04T15:22:00.800Z,52.90
2017-08-04T15:24:28.313Z,52.60
2017-08-04T15:26:55.778Z,53.50
2017-08-04T15:29:23.234Z,53.10
2017-08-04T15:31:50.861Z,52.90
2017-08-04T15:34:18.413Z,53.80
2017-08-04T15:36:46.678Z,53.70
2017-08-04T15:39:14.144Z,53.70
2017-08-04T15:41:42.368Z,52.60
2017-08-04T15:44:09.845Z,52.60
2017-08-04T15:46:37.310Z,52.60
2017-08-04T15:49:04.764Z,51.10
2017-08-04T15:51:32.262Z,51.30
2017-08-04T15:53:59.709Z,50.90
2017-08-04T15:56:27.177Z,51.60
2017-08-04T15:58:55.272Z,50.90
2017-08-04T16:01:22.733Z,50.60
2017-08-04T16:03:50.200Z,50.40
2017-08-04T16:06:17.721Z,49.90
2017-08-04T16:08:45.187Z,50.30
2017-08-04T16:11:12.637Z,50.20
2017-08-04T16:13:40.122Z,51.20
2017-08-04T16:16:07.593Z,51.50
2017-08-04T16:18:35.070Z,51.10
2017-08-04T16:21:02.592Z,51.40
2017-08-04T16:23:30.081Z,52.10
2017-08-04T16:25:57.545Z,52.00
2017-08-04T16:28:26.429Z,51.60
2017-08-04T16:30:53.936Z,51.60
2017-08-04T16:33:21.380Z,52.00
2017-08-04T16:35:48.996Z,51.80
2017-08-04T16:38:16.513Z,52.10
2017-08-04T16:40:43.974Z,52.30
2017-08-04T16:43:11.459Z,52.00
2017-08-04T16:45:38.917Z,52.30
2017-08-04T16:48:06.451Z,52.10
2017-08-04T16:50:33.924Z,52.90
2017-08-04T16:53:01.390Z,52.60
2017-08-04T16:55:28.889Z,52.00
2017-08-04T16:57:56.444Z,51.80
2017-08-04T17:00:23.939Z,51.70
2017-08-04T17:02:51.529Z,52.00
2017-08-04T17:05:19.049Z,52.20
2017-08-04T17:07:46.520Z,51.90
2017-08-04T17:10:13.985Z,51.80
2017-08-04T17:12:41.457Z,52.50
2017-08-04T17:15:08.975Z,53.10
2017-08-04T17:17:36.578Z,53.10
2017-08-04T17:20:04.032Z,53.00
2017-08-04T17:22:31.498Z,53.60
2017-08-04T17:24:59.736Z,53.20
2017-08-04T17:27:27.204Z,53.10
2017-08-04T17:29:54.697Z,52.00
2017-08-04T17:32:23.132Z,51.40
2017-08-04T17:34:50.592Z,51.40
2017-08-04T17:37:18.056Z,52.70
2017-08-04T17:39:46.385Z,51.90
2017-08-04T17:42:13.863Z,51.70
2017-08-04T17:44:41.326Z,51.70
2017-08-04T17:47:08.829Z,52.00
2017-08-04T17:49:37.053Z,52.30
2017-08-04T17:52:04.522Z,52.30
2017-08-04T17:54:32.018Z,52.40
2017-08-04T17:57:00.247Z,52.50
2017-08-04T17:59:27.725Z,52.30
2017-08-04T18:01:55.364Z,52.50
2017-08-04T18:04:22.853Z,52.50
2017-08-04T18:06:50.819Z,52.60
2017-08-04T18:09:18.289Z,52.50
2017-08-04T18:11:46.537Z,52.80
2017-08-04T18:14:14.002Z,52.70
2017-08-04T18:16:41.486Z,53.20
2017-08-04T18:19:09.709Z,53.10
2017-08-04T18:21:37.173Z,53.10
2017-08-04T18:24:04.648Z,53.50
2017-08-04T18:26:32.097Z,53.70
2017-08-04T18:28:59.579Z,53.50
2017-08-04T18:31:27.762Z,53.70
2017-08-04T18:33:56.049Z,54.10
2017-08-04T18:36:23.501Z,54.10
2017-08-04T18:38:51.272Z,54.20
2017-08-04T18:41:18.765Z,54.30
2017-08-04T18:43:46.231Z,54.70
2017-08-04T18:46:13.712Z,54.90
2017-08-04T18:48:41.177Z,55.20
2017-08-04T18:51:09.421Z,55.30
2017-08-04T18:53:36.967Z,55.30
2017-08-04T18:56:04.421Z,55.50
2017-08-04T18:58:31.912Z,55.80
2017-08-04T19:00:59.376Z,55.10
2017-08-04T19:03:26.847Z,55.70
2017-08-04T19:05:55.530Z,55.80
2017-08-04T19:08:23.764Z,56.10
2017-08-04T19:10:51.229Z,56.10
2017-08-04T19:13:18.701Z,56.20
2017-08-04T19:15:46.168Z,56.10
2017-08-04T19:18:14.407Z,56.10
2017-08-04T19:20:41.862Z,56.20
2017-08-04T19:23:09.337Z,56.30
2017-08-04T19:25:36.810Z,56.40
2017-08-04T19:28:05.061Z,57.10
2017-08-04T19:30:32.694Z,56.50
2017-08-04T19:33:00.160Z,56.40
2017-08-04T19:35:27.661Z,56.90
2017-08-04T19:37:55.145Z,57.20
2017-08-04T19:40:22.683Z,57.40
2017-08-04T19:42:50.921Z,58.10
2017-08-04T19:45:18.461Z,58.00
2017-08-04T19:47:45.937Z,58.20
2017-08-04T19:50:13.397Z,58.30
2017-08-04T19:52:40.973Z,58.20
2017-08-04T19:55:08.455Z,58.40
2017-08-04T19:57:36.673Z,58.90
2017-08-04T20:00:04.144Z,59.00
2017-08-04T20:02:31.608Z,59.10
2017-08-04T20:04:59.069Z,59.50
2017-08-04T20:07:26.552Z,59.40
2017-08-04T20:09:54.046Z,59.40
2017-08-04T20:12:21.954Z,60.20
2017-08-04T20:14:49.405Z,59.60
2017-08-04T20:17:16.882Z,60.00
2017-08-04T20:19:45.104Z,60.60
2017-08-04T20:22:12.596Z,60.50
2017-08-04T20:24:40.064Z,60.60
2017-08-04T20:27:08.294Z,60.80
2017-08-04T20:29:35.764Z,60.70
2017-08-04T20:32:03.683Z,61.00
2017-08-04T20:34:31.153Z,61.00
2017-08-04T20:36:58.790Z,61.10
2017-08-04T20:39:27.017Z,61.10
2017-08-04T20:41:54.479Z,61.00
2017-08-04T20:44:21.949Z,60.90
2017-08-04T20:46:49.416Z,60.90
2017-08-04T20:49:16.900Z,61.70
2017-08-04T20:51:44.484Z,61.70
2017-08-04T20:54:11.956Z,62.30
2017-08-04T20:56:39.625Z,62.50
2017-08-04T20:59:07.101Z,62.80
2017-08-04T21:01:34.580Z,63.10
2017-08-04T21:04:02.060Z,63.30
2017-08-04T21:06:29.605Z,63.90
2017-08-04T21:08:57.172Z,64.30
2017-08-04T21:11:24.666Z,64.70
2017-08-04T21:13:52.125Z,64.80
2017-08-04T21:16:19.681Z,64.40
2017-08-04T21:18:47.193Z,64.40
2017-08-04T21:21:14.653Z,64.70
2017-08-04T21:23:42.125Z,65.20
2017-08-04T21:26:09.579Z,65.60
2017-08-04T21:28:37.066Z,65.30
2017-08-04T21:31:04.565Z,64.80
2017-08-04T21:33:32.896Z,64.50
2017-08-04T21:36:00.370Z,64.50
2017-08-04T21:38:27.839Z,63.90
2017-08-04T21:43:29.889Z,64.20
2017-08-04T21:45:57.370Z,64.10
2017-08-04T21:48:24.838Z,64.20
2017-08-04T21:50:52.558Z,64.20
2017-08-04T21:53:20.013Z,63.90
2017-08-04T21:55:47.481Z,64.20
2017-08-04T21:58:14.948Z,65.00
2017-08-04T22:00:42.592Z,65.60
2017-08-04T22:03:10.088Z,65.50
2017-08-04T22:05:37.551Z,64.70
2017-08-04T22:08:05.799Z,64.70
2017-08-04T22:10:33.276Z,64.60
2017-08-04T22:13:00.890Z,64.80
2017-08-04T22:15:28.351Z,64.50
2017-08-04T22:20:29.793Z,64.90
2017-08-04T22:22:57.276Z,65.10
2017-08-04T22:25:24.733Z,65.70
2017-08-04T22:27:52.185Z,65.50
2017-08-04T22:30:19.680Z,65.60
2017-08-04T22:32:47.149Z,65.10
2017-08-04T22:35:15.378Z,65.00
2017-08-04T22:37:42.869Z,65.00
2017-08-04T22:40:10.324Z,65.10
2017-08-04T22:42:37.785Z,64.70
2017-08-04T22:45:05.252Z,64.60
2017-08-04T22:47:33.474Z,66.40
2017-08-04T22:50:01.809Z,65.70
2017-08-04T22:52:30.104Z,64.80
2017-08-04T22:54:57.564Z,64.80
2017-08-04T22:57:25.153Z,64.80
2017-08-04T22:59:52.661Z,65.00
2017-08-04T23:02:20.896Z,65.60
2017-08-04T23:04:48.530Z,65.50
2017-08-04T23:07:16.052Z,64.20
2017-08-04T23:09:44.294Z,65.40
2017-08-04T23:12:11.751Z,65.40
2017-08-04T23:14:39.244Z,65.40
2017-08-04T23:17:07.599Z,66.20
2017-08-04T23:19:35.062Z,66.20
2017-08-04T23:22:02.520Z,67.60
2017-08-04T23:24:30.843Z,67.00
2017-08-04T23:26:58.307Z,67.00
2017-08-04T23:29:25.897Z,67.20
2017-08-04T23:31:53.374Z,67.30
2017-08-04T23:34:21.609Z,66.80
2017-08-04T23:36:49.193Z,67.10
2017-08-04T23:39:16.668Z,67.10
2017-08-04T23:41:44.916Z,67.40
2017-08-04T23:44:12.407Z,67.30
2017-08-04T23:46:40.636Z,67.60
2017-08-04T23:49:08.122Z,67.60
2017-08-04T23:51:35.627Z,68.20
2017-08-04T23:54:03.073Z,68.60
2017-08-04T23:56:30.792Z,68.30
2017-08-04T23:58:58.273Z,68.40
